Time;durP1;ratioP1;P1;durP2;ratioP2;P2;SDS_P1;SDS_P2;PMS_P1;PMS_P2;Temp;Humidity;BMP_temperature;BMP_pressure;BME280_temperature;BME280_humidity;BME280_pressure;Samples;Min_cycle;Max_cycle;Signal;HPM_P1;HPM_P2
2024/03/09 00:00:35;;;;;;;219.13;61.20;;;;;;;;;;5033160;28;20191;-43
2024/03/09 00:03:01;;;;;;;221.18;63.20;;;;;;;;;;5033003;28;20199;-43
2024/03/09 00:05:28;;;;;;;218.70;60.47;;;;;;;;;;5032688;28;20196;-43
2024/03/09 00:07:55;;;;;;;215.98;60.42;;;;;;;;;;5032732;28;20705;-44
2024/03/09 00:10:22;;;;;;;219.85;62.42;;;;;;;;;;5027212;28;20183;-43
2024/03/09 00:12:49;;;;;;;218.48;61.30;;;;;;;;;;5032569;28;20203;-43
2024/03/09 00:15:15;;;;;;;220.77;63.08;;;;;;;;;;5034491;28;20222;-44
2024/03/09 00:17:42;;;;;;;219.63;62.22;;;;;;;;;;5032562;28;20640;-43
2024/03/09 00:20:15;;;;;;;221.50;63.63;;;;;;;;;;5032978;28;20172;-43
2024/03/09 00:22:43;;;;;;;218.38;61.60;;;;;;;;;;5029568;28;20916;-43
2024/03/09 00:25:09;;;;;;;225.18;66.53;;;;;;;;;;5032451;28;20242;-43
2024/03/09 00:27:35;;;;;;;220.73;62.63;;;;;;;;;;5032606;28;20198;-43
2024/03/09 00:30:02;;;;;;;217.10;60.08;;;;;;;;;;5031660;28;20184;-43
2024/03/09 00:32:29;;;;;;;218.90;61.15;;;;;;;;;;5032166;28;20282;-43
2024/03/09 00:34:55;;;;;;;218.55;60.65;;;;;;;;;;5032043;28;20176;-43
2024/03/09 00:37:21;;;;;;;218.45;60.45;;;;;;;;;;5031863;28;20691;-43
2024/03/09 00:39:47;;;;;;;217.83;61.43;;;;;;;;;;5032272;28;20251;-43
2024/03/09 00:42:14;;;;;;;221.75;62.38;;;;;;;;;;5032103;28;20966;-43
2024/03/09 00:44:40;;;;;;;214.70;57.70;;;;;;;;;;5032195;28;20180;-43
2024/03/09 00:47:06;;;;;;;217.13;60.50;;;;;;;;;;5030780;28;20228;-43
2024/03/09 00:49:33;;;;;;;217.60;60.63;;;;;;;;;;5032166;28;20255;-43
2024/03/09 00:51:59;;;;;;;216.43;59.22;;;;;;;;;;5032095;28;20419;-43
2024/03/09 00:54:25;;;;;;;218.00;60.70;;;;;;;;;;5031197;28;20207;-43
2024/03/09 00:56:52;;;;;;;213.35;56.90;;;;;;;;;;5031796;28;20450;-43
2024/03/09 00:59:19;;;;;;;217.60;60.13;;;;;;;;;;5031867;28;20172;-43
2024/03/09 01:01:47;;;;;;;217.63;60.20;;;;;;;;;;5031833;28;20682;-43
2024/03/09 01:04:13;;;;;;;218.82;60.88;;;;;;;;;;5031563;28;20199;-43
2024/03/09 01:06:39;;;;;;;215.68;59.25;;;;;;;;;;5031357;28;20175;-43
2024/03/09 01:09:05;;;;;;;217.57;60.90;;;;;;;;;;5031636;28;20179;-43
2024/03/09 01:11:31;;;;;;;220.02;62.03;;;;;;;;;;5031695;28;20419;-43
2024/03/09 01:13:57;;;;;;;218.55;60.92;;;;;;;;;;5031514;28;20222;-43
2024/03/09 01:16:23;;;;;;;215.60;58.77;;;;;;;;;;5031709;28;20179;-43
2024/03/09 01:18:52;;;;;;;216.97;59.47;;;;;;;;;;5031565;28;20402;-44
2024/03/09 01:21:19;;;;;;;218.68;60.40;;;;;;;;;;5031596;28;20414;-43
2024/03/09 01:23:45;;;;;;;219.00;61.45;;;;;;;;;;5031444;28;20211;-43
2024/03/09 01:26:11;;;;;;;216.93;59.47;;;;;;;;;;5031503;28;20259;-43
2024/03/09 01:28:37;;;;;;;219.15;61.00;;;;;;;;;;5031461;28;20830;-43
2024/03/09 01:31:03;;;;;;;217.70;59.90;;;;;;;;;;5031494;28;20588;-43
2024/03/09 01:33:30;;;;;;;217.98;61.00;;;;;;;;;;5031052;28;20270;-43
2024/03/09 01:35:56;;;;;;;217.85;60.85;;;;;;;;;;5031168;28;20195;-44
2024/03/09 01:38:22;;;;;;;218.70;61.30;;;;;;;;;;5031558;28;20178;-43
2024/03/09 01:40:48;;;;;;;220.35;64.53;;;;;;;;;;5030579;28;20175;-44
2024/03/09 01:43:16;;;;;;;217.87;61.50;;;;;;;;;;5030079;28;20586;-43
2024/03/09 01:45:46;;;;;;;217.15;60.83;;;;;;;;;;5030764;28;20925;-43
2024/03/09 01:48:18;;;;;;;217.00;59.92;;;;;;;;;;5030720;28;20256;-44
2024/03/09 01:50:44;;;;;;;218.30;60.80;;;;;;;;;;5031156;28;20179;-43
2024/03/09 01:53:10;;;;;;;219.13;61.20;;;;;;;;;;5030995;28;20199;-43
2024/03/09 01:55:38;;;;;;;213.45;58.40;;;;;;;;;;5030640;28;20175;-43
2024/03/09 01:58:05;;;;;;;216.35;60.50;;;;;;;;;;5030534;28;20168;-43
2024/03/09 02:00:37;;;;;;;215.43;59.17;;;;;;;;;;5030482;28;20175;-43
2024/03/09 02:03:08;;;;;;;215.48;59.30;;;;;;;;;;5028426;28;20195;-43
2024/03/09 02:05:36;;;;;;;217.90;62.17;;;;;;;;;;5029997;28;20175;-43
2024/03/09 02:08:05;;;;;;;216.30;60.40;;;;;;;;;;5027643;28;20210;-43
2024/03/09 02:10:31;;;;;;;213.20;58.38;;;;;;;;;;5030802;28;20177;-43
2024/03/09 02:12:57;;;;;;;214.20;59.17;;;;;;;;;;5030197;28;20213;-45
2024/03/09 02:15:29;;;;;;;214.00;58.70;;;;;;;;;;5030685;28;20557;-43
2024/03/09 02:17:56;;;;;;;218.20;59.72;;;;;;;;;;5030451;28;20490;-43
2024/03/09 02:20:25;;;;;;;213.00;57.50;;;;;;;;;;5031017;28;20214;-43
2024/03/09 02:22:52;;;;;;;212.00;57.13;;;;;;;;;;5030843;28;20215;-43
2024/03/09 02:25:19;;;;;;;215.50;59.60;;;;;;;;;;5030662;28;20191;-43
2024/03/09 02:27:45;;;;;;;215.57;58.33;;;;;;;;;;5030610;28;20172;-43
2024/03/09 02:30:12;;;;;;;218.68;60.33;;;;;;;;;;5029707;28;20176;-42
2024/03/09 02:32:39;;;;;;;214.32;57.83;;;;;;;;;;5030286;28;20196;-43
2024/03/09 02:35:06;;;;;;;218.10;61.22;;;;;;;;;;5030286;28;20647;-43
2024/03/09 02:37:33;;;;;;;212.90;56.63;;;;;;;;;;5030480;28;20194;-43
2024/03/09 02:39:59;;;;;;;212.50;58.50;;;;;;;;;;5030549;28;20644;-43
2024/03/09 02:42:25;;;;;;;212.60;57.50;;;;;;;;;;5030626;28;20195;-43
2024/03/09 02:44:51;;;;;;;215.05;59.55;;;;;;;;;;5030586;28;20414;-43
2024/03/09 02:47:17;;;;;;;213.90;58.87;;;;;;;;;;5030327;28;20180;-43
2024/03/09 02:49:43;;;;;;;215.83;59.20;;;;;;;;;;5027976;28;20496;-43
2024/03/09 02:52:09;;;;;;;215.25;59.65;;;;;;;;;;5030256;28;20430;-43
2024/03/09 02:54:35;;;;;;;214.57;58.38;;;;;;;;;;5030262;28;20557;-43
2024/03/09 02:57:06;;;;;;;214.03;58.00;;;;;;;;;;5028483;28;20209;-44
2024/03/09 02:59:33;;;;;;;212.85;56.85;;;;;;;;;;5032438;28;20418;-43
2024/03/09 03:02:03;;;;;;;215.93;58.83;;;;;;;;;;5030358;28;20172;-43
2024/03/09 03:04:29;;;;;;;215.38;58.15;;;;;;;;;;5030378;28;20167;-43
2024/03/09 03:06:55;;;;;;;214.53;57.73;;;;;;;;;;5028932;28;20180;-44
2024/03/09 03:09:22;;;;;;;216.10;58.60;;;;;;;;;;5030178;28;20442;-44
2024/03/09 03:11:49;;;;;;;212.07;57.30;;;;;;;;;;5034235;28;20179;-43
2024/03/09 03:14:15;;;;;;;216.30;58.38;;;;;;;;;;5033866;28;20298;-44
2024/03/09 03:16:41;;;;;;;215.93;58.33;;;;;;;;;;5034103;28;20633;-44
2024/03/09 03:19:09;;;;;;;215.93;58.38;;;;;;;;;;5033932;28;20409;-43
2024/03/09 03:21:35;;;;;;;214.60;57.95;;;;;;;;;;5034392;28;20575;-43
2024/03/09 03:24:04;;;;;;;217.15;58.85;;;;;;;;;;5033500;28;20265;-43
2024/03/09 03:26:30;;;;;;;214.40;58.20;;;;;;;;;;5033573;28;20179;-43
2024/03/09 03:28:56;;;;;;;213.45;57.50;;;;;;;;;;5033733;28;20210;-44
2024/03/09 03:31:24;;;;;;;214.50;57.00;;;;;;;;;;5034128;28;20417;-43
2024/03/09 03:33:50;;;;;;;216.32;58.78;;;;;;;;;;5033569;28;20191;-43
2024/03/09 03:36:18;;;;;;;215.23;58.72;;;;;;;;;;5033500;28;20176;-44
2024/03/09 03:38:46;;;;;;;214.25;57.63;;;;;;;;;;5034047;28;20517;-43
2024/03/09 03:41:11;;;;;;;215.95;58.70;;;;;;;;;;5033533;28;20164;-44
2024/03/09 03:43:38;;;;;;;215.30;58.77;;;;;;;;;;5033489;28;20210;-44
2024/03/09 03:46:05;;;;;;;217.65;59.42;;;;;;;;;;5033166;28;20406;-43
2024/03/09 03:48:31;;;;;;;215.77;57.78;;;;;;;;;;5033424;28;20175;-44
2024/03/09 03:50:57;;;;;;;217.90;59.40;;;;;;;;;;5033184;28;20171;-44
2024/03/09 03:53:24;;;;;;;213.95;57.80;;;;;;;;;;5033209;28;20210;-44
2024/03/09 03:55:50;;;;;;;215.52;58.72;;;;;;;;;;5033049;28;20179;-43
2024/03/09 03:58:17;;;;;;;216.63;58.58;;;;;;;;;;5033382;28;20163;-43
2024/03/09 04:00:44;;;;;;;213.32;56.20;;;;;;;;;;5033382;28;20176;-44
2024/03/09 04:03:11;;;;;;;217.27;58.35;;;;;;;;;;5033186;28;20199;-44
2024/03/09 04:05:38;;;;;;;215.27;57.40;;;;;;;;;;5032833;28;20182;-44
2024/03/09 04:08:06;;;;;;;218.95;60.30;;;;;;;;;;5032953;28;20183;-43
2024/03/09 04:10:33;;;;;;;216.05;59.13;;;;;;;;;;5033053;28;20663;-43
2024/03/09 04:12:59;;;;;;;215.80;58.65;;;;;;;;;;5032842;28;20219;-43
2024/03/09 04:15:26;;;;;;;214.18;58.13;;;;;;;;;;5032740;28;20171;-44
2024/03/09 04:17:52;;;;;;;216.05;59.08;;;;;;;;;;5032895;28;20163;-43
2024/03/09 04:20:18;;;;;;;216.93;58.83;;;;;;;;;;5032712;28;20697;-43
2024/03/09 04:22:50;;;;;;;215.57;57.33;;;;;;;;;;5032799;28;20195;-44
2024/03/09 04:25:16;;;;;;;219.07;61.35;;;;;;;;;;5032616;28;20539;-43
2024/03/09 04:27:42;;;;;;;219.07;60.80;;;;;;;;;;5032640;28;20750;-43
2024/03/09 04:30:11;;;;;;;217.35;59.25;;;;;;;;;;5032160;28;20203;-43
2024/03/09 04:32:38;;;;;;;217.68;60.35;;;;;;;;;;5032177;28;20566;-44
2024/03/09 04:35:05;;;;;;;218.23;61.63;;;;;;;;;;5032248;28;20528;-44
2024/03/09 04:37:34;;;;;;;214.85;58.30;;;;;;;;;;5032504;28;20561;-44
2024/03/09 04:40:01;;;;;;;217.15;58.40;;;;;;;;;;5032249;28;20175;-43
2024/03/09 04:42:28;;;;;;;215.82;58.22;;;;;;;;;;5032417;28;20188;-44
2024/03/09 04:44:54;;;;;;;216.43;57.80;;;;;;;;;;5032358;28;20176;-44
2024/03/09 04:47:22;;;;;;;217.77;59.75;;;;;;;;;;5032263;28;20258;-44
2024/03/09 04:49:47;;;;;;;217.75;58.42;;;;;;;;;;5032370;28;20178;-43
2024/03/09 04:52:14;;;;;;;218.90;59.53;;;;;;;;;;5032091;28;20655;-43
2024/03/09 04:54:43;;;;;;;217.57;58.95;;;;;;;;;;5032077;28;20561;-44
2024/03/09 04:57:11;;;;;;;220.32;60.08;;;;;;;;;;5031796;28;20206;-43
2024/03/09 04:59:39;;;;;;;217.55;58.28;;;;;;;;;;5032106;28;20217;-43
2024/03/09 05:02:05;;;;;;;218.73;59.45;;;;;;;;;;5031880;28;20228;-44
2024/03/09 05:04:31;;;;;;;217.38;57.75;;;;;;;;;;5032077;28;20648;-43
2024/03/09 05:06:57;;;;;;;217.63;58.80;;;;;;;;;;5031707;28;20191;-44
2024/03/09 05:09:25;;;;;;;214.83;57.20;;;;;;;;;;5032117;28;21011;-43
2024/03/09 05:11:51;;;;;;;217.13;58.53;;;;;;;;;;5032158;28;20494;-43
2024/03/09 05:14:17;;;;;;;218.83;59.10;;;;;;;;;;5031635;28;20356;-43
2024/03/09 05:16:46;;;;;;;216.87;57.80;;;;;;;;;;5031671;28;20402;-44
2024/03/09 05:19:12;;;;;;;216.68;58.15;;;;;;;;;;5031726;28;20414;-44
2024/03/09 05:21:38;;;;;;;215.65;56.03;;;;;;;;;;5031709;28;20171;-43
2024/03/09 05:24:05;;;;;;;217.73;57.83;;;;;;;;;;5031430;28;20215;-43
2024/03/09 05:26:34;;;;;;;220.18;60.65;;;;;;;;;;5031323;28;20183;-43
2024/03/09 05:29:00;;;;;;;219.93;59.08;;;;;;;;;;5031397;28;20229;-43
2024/03/09 05:31:26;;;;;;;219.05;57.78;;;;;;;;;;5031568;28;20176;-43
2024/03/09 05:33:53;;;;;;;218.05;58.13;;;;;;;;;;5030872;28;20203;-43
2024/03/09 05:36:19;;;;;;;218.05;57.15;;;;;;;;;;5031435;28;20175;-43
2024/03/09 05:38:48;;;;;;;218.95;59.05;;;;;;;;;;5031482;28;20697;-44
2024/03/09 05:41:15;;;;;;;220.75;59.13;;;;;;;;;;5031295;28;20640;-43
2024/03/09 05:43:42;;;;;;;219.07;57.90;;;;;;;;;;5031197;28;20261;-43
2024/03/09 05:46:08;;;;;;;218.80;59.13;;;;;;;;;;5030953;28;20199;-44
2024/03/09 05:48:34;;;;;;;218.82;58.72;;;;;;;;;;5031452;28;20398;-43
2024/03/09 05:51:00;;;;;;;218.40;58.20;;;;;;;;;;5031270;28;20559;-43
2024/03/09 05:53:26;;;;;;;216.90;56.67;;;;;;;;;;5030951;28;20486;-44
2024/03/09 05:55:52;;;;;;;220.82;58.95;;;;;;;;;;5030998;28;20226;-43
2024/03/09 05:58:22;;;;;;;220.70;58.55;;;;;;;;;;5031026;28;20175;-43
2024/03/09 06:00:48;;;;;;;219.63;57.95;;;;;;;;;;5031676;28;20199;-43
2024/03/09 06:03:15;;;;;;;218.70;58.35;;;;;;;;;;5031103;28;20230;-43
2024/03/09 06:05:42;;;;;;;221.02;59.63;;;;;;;;;;5030835;28;20202;-43
2024/03/09 06:08:08;;;;;;;221.75;59.92;;;;;;;;;;5030786;28;20176;-43
2024/03/09 06:10:34;;;;;;;222.45;61.20;;;;;;;;;;5030790;28;20643;-43
2024/03/09 06:13:00;;;;;;;219.73;58.85;;;;;;;;;;5030676;28;20286;-43
2024/03/09 06:15:27;;;;;;;219.90;58.80;;;;;;;;;;5029598;28;20278;-43
2024/03/09 06:17:56;;;;;;;222.15;61.88;;;;;;;;;;5030723;28;20421;-43
2024/03/09 06:20:26;;;;;;;217.60;57.45;;;;;;;;;;5023164;28;20670;-43
2024/03/09 06:22:53;;;;;;;219.32;59.10;;;;;;;;;;5030695;28;20766;-43
2024/03/09 06:25:22;;;;;;;220.35;59.78;;;;;;;;;;5030619;28;20186;-43
2024/03/09 06:27:49;;;;;;;220.52;59.08;;;;;;;;;;5030956;28;20167;-43
2024/03/09 06:30:15;;;;;;;222.27;60.45;;;;;;;;;;5030752;28;20527;-43
2024/03/09 06:32:46;;;;;;;223.85;62.05;;;;;;;;;;5029861;28;20201;-43
2024/03/09 06:35:13;;;;;;;232.43;68.55;;;;;;;;;;5030722;28;20246;-43
2024/03/09 06:37:39;;;;;;;226.18;63.72;;;;;;;;;;5030007;28;20168;-43
2024/03/09 06:40:06;;;;;;;224.27;62.58;;;;;;;;;;5029780;28;20259;-43
2024/03/09 06:42:32;;;;;;;225.15;64.13;;;;;;;;;;5030158;28;20193;-44
2024/03/09 06:44:59;;;;;;;228.80;67.05;;;;;;;;;;5031439;28;20177;-43
2024/03/09 06:47:25;;;;;;;223.23;62.00;;;;;;;;;;5034754;28;20182;-43
2024/03/09 06:49:52;;;;;;;222.83;61.53;;;;;;;;;;5034702;28;20263;-43
2024/03/09 06:52:18;;;;;;;223.77;61.17;;;;;;;;;;5034126;28;20402;-43
2024/03/09 06:54:46;;;;;;;223.18;61.05;;;;;;;;;;5034395;28;20566;-43
2024/03/09 06:57:12;;;;;;;223.82;61.60;;;;;;;;;;5034359;28;20180;-43
2024/03/09 06:59:40;;;;;;;224.17;62.43;;;;;;;;;;5034451;28;20716;-44
2024/03/09 07:02:06;;;;;;;224.75;61.65;;;;;;;;;;5034276;28;20779;-44
2024/03/09 07:04:32;;;;;;;225.57;62.70;;;;;;;;;;5034214;28;20641;-44
2024/03/09 07:06:58;;;;;;;226.07;62.87;;;;;;;;;;5032932;28;20180;-43
2024/03/09 07:09:24;;;;;;;224.43;61.53;;;;;;;;;;5033930;28;20851;-43
2024/03/09 07:11:51;;;;;;;225.60;62.20;;;;;;;;;;5029611;28;20505;-44
2024/03/09 07:14:17;;;;;;;224.80;61.75;;;;;;;;;;5033250;28;20679;-43
2024/03/09 07:16:45;;;;;;;227.27;63.97;;;;;;;;;;5031956;28;20187;-44
2024/03/09 07:19:11;;;;;;;233.30;66.70;;;;;;;;;;5032010;28;20170;-44
2024/03/09 07:21:37;;;;;;;224.35;61.30;;;;;;;;;;5032799;28;20256;-43
2024/03/09 07:24:06;;;;;;;229.07;65.87;;;;;;;;;;5031863;28;20208;-44
2024/03/09 07:26:32;;;;;;;224.90;62.05;;;;;;;;;;5032034;28;20411;-43
2024/03/09 07:28:58;;;;;;;227.53;65.33;;;;;;;;;;5033836;28;20437;-44
2024/03/09 07:31:27;;;;;;;226.10;64.35;;;;;;;;;;5031127;28;20493;-44
2024/03/09 07:33:53;;;;;;;225.18;62.40;;;;;;;;;;5033258;28;20260;-44
2024/03/09 07:36:20;;;;;;;226.38;61.67;;;;;;;;;;5033117;28;20251;-44
2024/03/09 07:38:48;;;;;;;228.18;65.70;;;;;;;;;;5033529;28;20181;-43
2024/03/09 07:41:16;;;;;;;226.88;63.10;;;;;;;;;;5033502;28;20176;-44
2024/03/09 07:43:42;;;;;;;225.90;62.17;;;;;;;;;;5033352;28;20689;-43
2024/03/09 07:46:08;;;;;;;227.45;62.75;;;;;;;;;;5033276;28;20180;-44
2024/03/09 07:48:34;;;;;;;227.27;62.53;;;;;;;;;;5033313;28;20178;-44
2024/03/09 07:51:00;;;;;;;227.17;61.83;;;;;;;;;;5033440;28;20189;-44
2024/03/09 07:53:26;;;;;;;229.43;64.47;;;;;;;;;;5033373;28;20499;-44
2024/03/09 07:55:54;;;;;;;229.13;62.63;;;;;;;;;;5032487;28;20417;-44
2024/03/09 07:58:25;;;;;;;229.13;61.53;;;;;;;;;;5033328;28;20171;-44
2024/03/09 08:00:51;;;;;;;229.60;61.53;;;;;;;;;;5033442;28;20225;-44
2024/03/09 08:03:17;;;;;;;230.07;63.97;;;;;;;;;;5033144;28;20614;-44
2024/03/09 08:05:43;;;;;;;233.48;65.45;;;;;;;;;;5033208;28;20608;-44
2024/03/09 08:08:09;;;;;;;232.95;67.00;;;;;;;;;;5033027;28;20174;-44
2024/03/09 08:10:39;;;;;;;230.50;65.30;;;;;;;;;;5032673;28;20188;-44
2024/03/09 08:13:05;;;;;;;233.43;65.75;;;;;;;;;;5032666;28;20209;-44
2024/03/09 08:15:32;;;;;;;233.95;65.85;;;;;;;;;;5031847;28;20173;-44
2024/03/09 08:17:58;;;;;;;232.32;63.92;;;;;;;;;;5032592;28;20175;-44
2024/03/09 08:20:26;;;;;;;232.88;65.15;;;;;;;;;;5031786;28;20191;-44
2024/03/09 08:22:54;;;;;;;233.43;63.42;;;;;;;;;;5032610;28;20203;-44
2024/03/09 08:25:20;;;;;;;233.63;66.15;;;;;;;;;;5032889;28;20269;-44
2024/03/09 08:27:46;;;;;;;231.97;65.47;;;;;;;;;;5032729;28;20257;-44
2024/03/09 08:30:14;;;;;;;236.10;67.88;;;;;;;;;;5032489;28;20409;-44
2024/03/09 08:32:44;;;;;;;233.57;66.28;;;;;;;;;;5032609;28;20237;-44
2024/03/09 08:35:11;;;;;;;237.38;70.43;;;;;;;;;;5031666;28;20687;-44
2024/03/09 08:37:41;;;;;;;235.80;68.55;;;;;;;;;;5031869;28;20640;-44
2024/03/09 08:40:08;;;;;;;236.73;69.03;;;;;;;;;;5032356;28;20226;-44
2024/03/09 08:42:33;;;;;;;236.02;67.60;;;;;;;;;;5031165;28;20193;-44
2024/03/09 08:45:00;;;;;;;237.33;70.10;;;;;;;;;;5032057;28;20575;-44
2024/03/09 08:47:26;;;;;;;238.32;70.07;;;;;;;;;;5032598;28;20407;-44
2024/03/09 08:49:52;;;;;;;236.10;69.93;;;;;;;;;;5032403;28;20652;-44
2024/03/09 08:52:20;;;;;;;237.43;70.40;;;;;;;;;;5032141;28;20997;-44
2024/03/09 08:54:47;;;;;;;237.55;67.20;;;;;;;;;;5031967;28;20453;-45
2024/03/09 08:57:13;;;;;;;245.20;79.10;;;;;;;;;;5031685;28;20548;-44
2024/03/09 08:59:42;;;;;;;241.47;71.87;;;;;;;;;;5032698;28;20182;-45
2024/03/09 09:02:08;;;;;;;239.63;68.05;;;;;;;;;;5031653;28;20413;-45
2024/03/09 09:04:34;;;;;;;242.70;74.00;;;;;;;;;;5032094;28;20639;-45
2024/03/09 09:07:01;;;;;;;244.40;76.23;;;;;;;;;;5030961;28;20700;-44
2024/03/09 09:09:27;;;;;;;246.60;78.90;;;;;;;;;;5031225;28;20533;-46
2024/03/09 09:11:54;;;;;;;247.07;77.80;;;;;;;;;;5031786;28;20303;-44
2024/03/09 09:14:20;;;;;;;250.40;80.38;;;;;;;;;;5030739;28;20473;-46
2024/03/09 09:16:46;;;;;;;251.40;82.23;;;;;;;;;;5031283;28;20253;-46
2024/03/09 09:19:13;;;;;;;246.80;77.35;;;;;;;;;;5031565;28;20851;-46
2024/03/09 09:21:39;;;;;;;252.87;81.07;;;;;;;;;;5031233;28;20177;-45
2024/03/09 09:24:05;;;;;;;249.17;81.93;;;;;;;;;;5031210;28;20530;-45
2024/03/09 09:26:31;;;;;;;253.57;81.50;;;;;;;;;;5030566;28;20457;-45
2024/03/09 09:28:57;;;;;;;251.70;79.63;;;;;;;;;;5031272;28;20863;-45
2024/03/09 09:31:23;;;;;;;250.43;84.90;;;;;;;;;;5031573;28;20414;-46
2024/03/09 09:33:49;;;;;;;246.70;81.73;;;;;;;;;;5031581;28;20489;-45
2024/03/09 09:36:16;;;;;;;242.40;80.30;;;;;;;;;;5030517;28;20513;-46
2024/03/09 09:38:45;;;;;;;247.27;83.57;;;;;;;;;;5031202;28;20480;-46
2024/03/09 09:41:11;;;;;;;245.93;83.93;;;;;;;;;;5031163;28;20433;-45
2024/03/09 09:43:38;;;;;;;249.20;89.63;;;;;;;;;;5031296;28;20583;-45
2024/03/09 09:46:04;;;;;;;250.83;89.73;;;;;;;;;;5031182;28;20415;-45
2024/03/09 09:48:37;;;;;;;247.53;85.93;;;;;;;;;;5031246;28;20493;-45
2024/03/09 09:51:04;;;;;;;254.87;98.93;;;;;;;;;;5031156;28;20413;-46
2024/03/09 09:53:31;;;;;;;252.50;96.67;;;;;;;;;;5030913;28;20457;-45
2024/03/09 09:55:57;;;;;;;250.57;95.60;;;;;;;;;;5031069;28;20402;-45
2024/03/09 09:58:25;;;;;;;253.60;98.53;;;;;;;;;;5031225;28;20416;-45
2024/03/09 10:00:53;;;;;;;250.57;93.60;;;;;;;;;;5031155;28;20414;-45
2024/03/09 10:03:19;;;;;;;248.67;91.57;;;;;;;;;;5030958;28;20488;-45
2024/03/09 10:05:45;;;;;;;248.83;91.80;;;;;;;;;;5030826;28;20464;-45
2024/03/09 10:08:14;;;;;;;252.53;98.67;;;;;;;;;;5030677;28;20420;-45
2024/03/09 10:10:43;;;;;;;244.07;85.80;;;;;;;;;;5030982;28;20931;-45
2024/03/09 10:13:10;;;;;;;245.00;86.37;;;;;;;;;;5030831;28;21298;-44
2024/03/09 10:15:38;;;;;;;247.93;90.83;;;;;;;;;;5030716;28;20406;-45
2024/03/09 10:18:04;;;;;;;252.70;96.70;;;;;;;;;;5030839;28;20454;-45
2024/03/09 10:20:32;;;;;;;245.43;87.57;;;;;;;;;;5030775;28;20410;-45
2024/03/09 10:22:59;;;;;;;248.23;91.07;;;;;;;;;;5030600;28;20825;-45
2024/03/09 10:25:26;;;;;;;251.00;92.97;;;;;;;;;;5030625;28;20854;-45
2024/03/09 10:27:52;;;;;;;253.03;98.83;;;;;;;;;;5030735;28;20410;-45
2024/03/09 10:30:18;;;;;;;252.13;97.03;;;;;;;;;;5030680;28;20421;-45
2024/03/09 10:32:44;;;;;;;253.80;100.87;;;;;;;;;;5030633;28;20426;-45
2024/03/09 10:35:11;;;;;;;256.80;103.90;;;;;;;;;;5030159;28;20825;-45
2024/03/09 10:37:40;;;;;;;254.57;104.40;;;;;;;;;;5030675;28;20414;-46
2024/03/09 10:40:12;;;;;;;255.00;104.47;;;;;;;;;;5030653;28;20671;-46
2024/03/09 10:42:41;;;;;;;253.50;102.03;;;;;;;;;;5030057;28;20438;-45
2024/03/09 10:45:11;;;;;;;258.30;104.33;;;;;;;;;;5028694;28;20402;-44
2024/03/09 10:47:39;;;;;;;254.53;103.33;;;;;;;;;;5030282;28;20471;-45
2024/03/09 10:50:07;;;;;;;250.43;94.23;;;;;;;;;;5030513;28;20420;-45
2024/03/09 10:52:33;;;;;;;253.17;100.67;;;;;;;;;;5030458;28;20794;-45
2024/03/09 10:55:01;;;;;;;256.77;104.63;;;;;;;;;;5030159;28;20529;-46
2024/03/09 10:57:29;;;;;;;249.37;94.13;;;;;;;;;;5030405;28;20421;-45
2024/03/09 10:59:59;;;;;;;250.13;96.60;;;;;;;;;;5030391;28;20406;-46
2024/03/09 11:02:25;;;;;;;255.27;108.30;;;;;;;;;;5030247;28;20909;-45
2024/03/09 11:04:52;;;;;;;256.23;106.13;;;;;;;;;;5030639;28;20410;-45
2024/03/09 11:07:22;;;;;;;255.10;105.33;;;;;;;;;;5030260;28;20446;-46
2024/03/09 11:09:49;;;;;;;254.07;106.03;;;;;;;;;;5030463;28;20410;-45
2024/03/09 11:12:16;;;;;;;251.47;98.23;;;;;;;;;;5030159;28;20500;-46
2024/03/09 11:14:51;;;;;;;249.80;98.27;;;;;;;;;;5030119;28;20550;-46
2024/03/09 11:17:23;;;;;;;254.27;106.60;;;;;;;;;;5029950;28;20460;-45
2024/03/09 11:19:50;;;;;;;252.33;102.10;;;;;;;;;;5030225;28;20782;-45
2024/03/09 11:22:36;;;;;;;255.67;109.07;;;;;;;;;;5030310;28;20841;-45
2024/03/09 11:25:02;;;;;;;258.53;112.87;;;;;;;;;;5025989;28;20933;-46
2024/03/09 11:27:31;;;;;;;255.80;108.97;;;;;;;;;;5029015;28;20394;-46
2024/03/09 11:29:59;;;;;;;251.37;103.47;;;;;;;;;;5030193;28;20471;-45
2024/03/09 11:32:28;;;;;;;254.37;107.40;;;;;;;;;;5028250;28;20459;-46
2024/03/09 11:35:14;;;;;;;253.07;108.47;;;;;;;;;;5029909;28;20493;-45
2024/03/09 11:37:49;;;;;;;257.60;113.87;;;;;;;;;;5033421;28;20405;-45
2024/03/09 11:40:16;;;;;;;254.43;109.03;;;;;;;;;;5033458;28;20425;-45
2024/03/09 11:42:42;;;;;;;252.73;104.90;;;;;;;;;;5033657;28;20830;-44
2024/03/09 11:45:14;;;;;;;262.37;116.47;;;;;;;;;;5033318;28;20918;-45
2024/03/09 11:47:40;;;;;;;274.80;128.73;;;;;;;;;;5028537;28;20413;-45
2024/03/09 11:50:06;;;;;;;261.03;116.73;;;;;;;;;;5031861;28;20410;-45
2024/03/09 11:52:32;;;;;;;251.30;102.63;;;;;;;;;;5033804;28;20438;-45
2024/03/09 11:55:05;;;;;;;252.00;105.40;;;;;;;;;;5033157;28;20462;-46
2024/03/09 11:57:32;;;;;;;260.60;116.20;;;;;;;;;;5033374;28;20469;-45
2024/03/09 11:59:59;;;;;;;261.23;117.03;;;;;;;;;;5033027;28;20421;-45
2024/03/09 12:02:24;;;;;;;254.07;106.60;;;;;;;;;;5032999;28;20410;-45
2024/03/09 12:04:56;;;;;;;252.87;106.27;;;;;;;;;;5032973;28;20924;-45
2024/03/09 12:07:22;;;;;;;259.73;119.40;;;;;;;;;;5032977;28;20489;-45
2024/03/09 12:09:49;;;;;;;252.73;106.23;;;;;;;;;;5033155;28;20493;-45
2024/03/09 12:12:15;;;;;;;257.57;111.43;;;;;;;;;;5032932;28;20417;-45
2024/03/09 12:14:42;;;;;;;251.90;106.90;;;;;;;;;;5033362;28;20544;-45
2024/03/09 12:17:10;;;;;;;258.43;117.20;;;;;;;;;;5032706;28;20438;-45
2024/03/09 12:19:36;;;;;;;255.40;113.90;;;;;;;;;;5033008;28;20414;-45
2024/03/09 12:22:02;;;;;;;253.10;107.43;;;;;;;;;;5032820;28;20501;-45
2024/03/09 12:24:28;;;;;;;254.33;111.73;;;;;;;;;;5032935;28;20469;-45
2024/03/09 12:26:55;;;;;;;256.60;115.60;;;;;;;;;;5032493;28;20422;-45
2024/03/09 12:29:23;;;;;;;253.60;110.37;;;;;;;;;;5033575;28;20751;-45
2024/03/09 12:31:49;;;;;;;257.43;119.10;;;;;;;;;;5032424;28;20776;-45
2024/03/09 12:34:15;;;;;;;259.67;123.13;;;;;;;;;;5032625;28;22160;-45
2024/03/09 12:36:51;;;;;;;258.03;117.70;;;;;;;;;;5032364;28;20910;-45
2024/03/09 12:39:17;;;;;;;259.33;122.20;;;;;;;;;;5032839;28;20452;-45
2024/03/09 12:41:54;;;;;;;254.90;114.70;;;;;;;;;;5032274;28;20417;-45
2024/03/09 12:44:21;;;;;;;264.00;123.20;;;;;;;;;;5032341;28;20434;-45
2024/03/09 12:46:47;;;;;;;258.27;118.80;;;;;;;;;;5031995;28;20447;-45
2024/03/09 12:49:13;;;;;;;256.43;115.23;;;;;;;;;;5032226;28;20418;-45
2024/03/09 12:51:40;;;;;;;256.57;115.67;;;;;;;;;;5032291;28;20417;-44
2024/03/09 12:54:09;;;;;;;258.40;115.73;;;;;;;;;;5031965;28;20804;-44
2024/03/09 12:56:36;;;;;;;255.83;109.57;;;;;;;;;;5031907;28;20410;-45
2024/03/09 12:59:03;;;;;;;257.40;113.13;;;;;;;;;;5031934;28;20464;-44
2024/03/09 13:01:32;;;;;;;252.70;104.07;;;;;;;;;;5032230;28;20994;-44
2024/03/09 13:03:59;;;;;;;250.90;99.97;;;;;;;;;;5031973;28;20472;-44
2024/03/09 13:06:28;;;;;;;252.93;104.40;;;;;;;;;;5031754;28;20420;-45
2024/03/09 13:08:58;;;;;;;253.90;104.50;;;;;;;;;;5032363;28;20926;-45
2024/03/09 13:11:27;;;;;;;256.63;110.97;;;;;;;;;;5031764;28;20407;-44
2024/03/09 13:13:52;;;;;;;251.20;102.37;;;;;;;;;;5031669;28;20489;-45
2024/03/09 13:16:18;;;;;;;255.27;110.83;;;;;;;;;;5031580;28;20895;-44
2024/03/09 13:18:47;;;;;;;257.40;115.20;;;;;;;;;;5031743;28;20470;-44
2024/03/09 13:21:14;;;;;;;258.47;115.23;;;;;;;;;;5032135;28;20406;-45
2024/03/09 13:23:41;;;;;;;257.30;111.27;;;;;;;;;;5031788;28;20462;-44
2024/03/09 13:26:13;;;;;;;255.10;108.87;;;;;;;;;;5031151;28;20438;-45
2024/03/09 13:28:40;;;;;;;251.77;105.43;;;;;;;;;;5031562;28;20463;-45
2024/03/09 13:31:06;;;;;;;253.30;109.37;;;;;;;;;;5031426;28;20973;-45
2024/03/09 13:33:41;;;;;;;255.00;109.93;;;;;;;;;;5031392;28;20461;-45
2024/03/09 13:36:07;;;;;;;255.87;110.53;;;;;;;;;;5031098;28;20821;-45
2024/03/09 13:38:34;;;;;;;255.23;109.10;;;;;;;;;;5031087;28;20410;-45
2024/03/09 13:40:59;;;;;;;257.83;115.50;;;;;;;;;;5031354;28;20471;-45
2024/03/09 13:43:25;;;;;;;251.83;103.17;;;;;;;;;;5031271;28;20434;-45
2024/03/09 13:45:52;;;;;;;250.83;102.30;;;;;;;;;;5031309;28;20445;-45
2024/03/09 13:48:18;;;;;;;249.00;100.83;;;;;;;;;;5031197;28;20406;-45
2024/03/09 13:50:44;;;;;;;254.50;107.70;;;;;;;;;;5031744;28;20415;-45
2024/03/09 13:53:10;;;;;;;256.93;117.60;;;;;;;;;;5030566;28;20516;-45
2024/03/09 13:55:39;;;;;;;255.53;108.40;;;;;;;;;;5030777;28;20415;-45
2024/03/09 13:58:05;;;;;;;257.07;108.70;;;;;;;;;;5031031;28;20493;-45
2024/03/09 14:00:31;;;;;;;255.93;106.90;;;;;;;;;;5031344;28;20406;-45